x

Virginia Beach 64 Nm East Of Virginia Beach, Va (44014) Wave Buoy

5:50 - Thu 29th Sep 2016 All times are EDT. -4 hours from GMT.

  • Sig Wave height 7.5ft
  • Swell Direction
  • Peak Period 9s
  • Average Period 7s
  • Wind
    13mph, 16mph gusts
  • Sea Temp 75°f
  • Aire Temp 74°f
  • Sea Pressure 1016.3mb
  • Virginia Beach 64 Nm East Of Virginia Beach, Va
  • Virginia Beach 64 Nm East Of Virginia Beach, Va

More Historic Weather Station data

Upgrade to MSW Pro to gain access to the past 30 days of data for over 8000 Wavebouys and Weather Stations around the globe.

Join Pro

Comparision Forecast

View Surf forecast
   
jue 09/29 5:50 7.5ft 9s 7s 13 16 mph 1016.3mb 75f 74f
4:50 6ft 9s 6s 16 18 mph 1016.6mb 75f 74f
3:50 6ft 8s 6s 9 13 mph 1016.5mb 75f 76f
2:50 5.5ft 8s 6s 11
mph
1016.8mb 75f 76f
1:50 5.5ft 7s 6s 9 13 mph 1017.2mb 75f 75f
12:50 5ft 7s 6s 16 20 mph 1017.4mb 75f 76f
11:50 5ft 8s 6s 9 11 mph 1017.7mb 75f 76f
10:50 5.5ft 8s 6s 7 9 mph 1017.8mb 74f 75f
9:50 5.5ft 8s 6s 4 7 mph 1017.5mb 73f 76f
8:50 5.5ft 8s 6s 7
mph
1017.5mb 73f 76f
7:50 5ft 7s 6s 4
mph
1017mb 74f 75f
6:50 5ft 8s 6s 7 9 mph 1016.6mb 74f 76f
5:50 5ft 7s 6s 7
mph
1016.1mb 75f 75f
4:50 5ft 8s 6s 7
mph
1016.2mb 75f 76f
3:50 5.5ft 8s 6s 4 7 mph 1016.5mb 74f 75f
2:50 5ft 8s 6s 4 7 mph 1016.5mb 74f 75f
1:50 5ft 8s 6s 4 7 mph 1016.4mb 74f 75f
12:50 5ft 8s 6s 2 4 mph 1016.5mb 74f 75f
mié 09/28 11:50 5.5ft 8s 7s 7
mph
1016.9mb 74f 75f
10:50 5.5ft 8s 7s 4 7 mph 1017mb 74f 75f
9:50 5ft 8s 7s 7 9 mph 1016.7mb 75f 75f
8:50 4.5ft 8s 7s 4
mph
1016.4mb 75f 75f
7:50 5ft 7s 6s 4 7 mph 1015.5mb 75f 76f
6:50 4.5ft 8s 6s 4 7 mph 1015.4mb 75f 76f
5:50 4ft 7s 6s 7
mph
1015.2mb 76f 76f
4:50 4ft 7s 6s 7
mph
1014.9mb 76f 77f
3:50 4ft 8s 5s 2 4 mph 1015.3mb 76f 77f
2:50 4ft 7s 5s 7
mph
1015.2mb 75f 76f
1:50 4.5ft 11s 5s 7 9 mph 1014.9mb 75f 76f
12:50 4.5ft 7s 5s 7 9 mph 1015.2mb 75f 76f
11:50 4.5ft 7s 5s 9 11 mph 1014.9mb 74f 76f
10:50 4.5ft 6s 5s 11 13 mph 1014.9mb 74f 74f
9:50 4.5ft 7s 6s 13 16 mph 1014.4mb 74f 74f
8:50 4.5ft 8s 6s 13 16 mph 1014.1mb 74f 74f
7:50 4.5ft 6s 6s 13 16 mph 1013.7mb 74f 74f
6:50 4.5ft 8s 6s 13 16 mph 1013mb 74f 73f
5:50 4.5ft 6s 6s 11 13 mph 1012.7mb 74f 74f
4:50 4.5ft 7s 6s 9 11 mph 1012.3mb 74f 74f
3:50 4.5ft 7s 6s 7 9 mph 1012.6mb 74f 74f
2:50 4.5ft 12s 6s 4 7 mph 1012.8mb 73f 74f
1:50 4ft 12s 6s 4
mph
1012.6mb 73f 74f
12:50 4ft 12s 5s 4 7 mph 1012.7mb 73f 74f
mar 09/27 11:50 3.5ft 11s 5s 7 9 mph 1013.2mb 74f 74f
10:50 3.5ft 11s 5s 4 7 mph 1013.1mb 74f 74f
9:50 3.5ft 12s 5s 7 9 mph 1013.2mb 74f 74f
8:50 3.5ft 12s 5s 7
mph
1013.3mb 74f 74f
7:50 3.5ft 12s 5s 9 11 mph 1012.6mb 74f 74f
6:50 3ft 4s 5s 13 16 mph 1012.3mb 74f 74f
5:50 3ft 12s 5s 7
mph
1013mb 74f 74f
4:50 3ft 11s 5s 7 9 mph 1013.1mb 74f 74f
3:50 3ft 12s 5s 4
mph
1013mb 74f 74f
2:50 3ft 12s 5s 7 9 mph 1013.2mb 74f 74f
1:50 3ft 12s 5s 9 11 mph 1013.8mb 73f 74f
12:50 3.5ft 5s 5s 13 16 mph 1014.5mb 73f 75f
11:50 3.5ft 5s 5s 9 11 mph 1015.2mb 73f 75f
10:50 3.5ft 6s 5s 7 9 mph 1015.7mb 73f 75f
9:50 3.5ft 5s 5s 9 11 mph 1015.5mb 73f 75f
8:50 3.5ft 6s 5s 11 13 mph 1015.2mb 74f 75f
7:50 4ft 6s 5s 11 16 mph 1015mb 74f 75f
6:50 4ft 5s 4s 16 20 mph 1014.4mb 74f 75f
5:50 3.5ft 5s 4s 18 22 mph 1014.3mb 74f 75f
4:50 3.5ft 5s 4s 16 20 mph 1014.8mb 74f 75f
3:50 3.5ft 5s 4s 18 20 mph 1015mb 74f 75f
2:50 3.5ft 5s 5s 18 20 mph 1015.7mb 74f 75f
1:50 3.5ft 5s 5s 18 22 mph 1015.7mb 74f 75f
12:50 3ft 5s 5s 13 18 mph 1016.4mb 74f 75f
lun 09/26 11:50 3.5ft 5s 5s 11 13 mph 1017.2mb 74f 74f
10:50 3.5ft 5s 5s 9 11 mph 1017.8mb 74f 75f
9:50 3.5ft 8s 5s 11
mph
1018.5mb 74f 75f
8:50 3.5ft 4s 4s 16 20 mph 1018.3mb 75f 76f
7:50 3.5ft 5s 4s 18 22 mph 1017.7mb 76f 76f
6:50 3.5ft 4s 4s 18 20 mph 1017.5mb 76f 76f
5:50 3.5ft 8s 4s 16 20 mph 1017.5mb 76f 75f
4:50 3.5ft 9s 5s 18 20 mph 1017.7mb 76f 75f
3:50 3.5ft 8s 5s 16 20 mph 1018.2mb 76f 74f
2:50 3ft 8s 5s 13 18 mph 1018.9mb 76f 74f
1:50 3ft 9s 6s 11 13 mph 1019.5mb 76f 74f
12:50 2.5ft 8s 5s 9 11 mph 1020.4mb 75f 73f
11:50 3ft 9s 5s 9 13 mph 1020.7mb 75f 73f
10:50 3ft 9s 6s 9 11 mph 1021.1mb 74f 72f
9:50 2.5ft 9s 6s 7 11 mph 1020.8mb 74f 72f
8:50 2.5ft 9s 6s 9 11 mph 1020.4mb 74f 71f
7:50 3ft 9s 5s 7 11 mph 1020.5mb 74f 71f
6:50 2.5ft 7s 5s 7 11 mph 1020.3mb 73f 70f
5:50 3.5ft 8s 5s 7 9 mph 1020.2mb 73f 70f
4:50 3.5ft 8s 6s 7 9 mph 1020.1mb 73f 69f
3:50 3.5ft 9s 6s 9 11 mph 1020mb 73f 70f
2:50 3.5ft 10s 6s 9 11 mph 1020.4mb 73f 70f
1:50 3.5ft 10s 6s 11 13 mph 1021mb 74f 70f
12:50 4ft 10s 5s 11 13 mph 1020.9mb 74f 70f
dom 09/25 11:50 3.5ft 10s 5s 11 16 mph 1020.9mb 75f 70f
10:50 4ft 9s 5s 13 18 mph 1021.1mb 75f 70f